Time;durP1;ratioP1;P1;durP2;ratioP2;P2;SDS_P1;SDS_P2;PMS_P1;PMS_P2;Temp;Humidity;BMP_temperature;BMP_pressure;BME280_temperature;BME280_humidity;BME280_pressure;Samples;Min_cycle;Max_cycle;Signal;HPM_P1;HPM_P2
2021/09/21 00:00:59;;;;;;;6.97;4.75;;;12.50;83.30;;;;;;4997327;28;20167;-80
2021/09/21 00:03:24;;;;;;;8.20;5.35;;;12.50;83.80;;;;;;4996014;28;20087;-80
2021/09/21 00:06:04;;;;;;;10.35;5.50;;;12.50;84.30;;;;;;4981086;28;20105;-80
2021/09/21 00:08:29;;;;;;;8.23;5.25;;;12.40;85.00;;;;;;5032913;28;20397;-80
2021/09/21 00:10:56;;;;;;;8.40;5.47;;;12.40;84.10;;;;;;4951063;28;20037;-80
2021/09/21 00:13:22;;;;;;;9.50;5.55;;;12.40;84.20;;;;;;5012419;28;20083;-80
2021/09/21 00:15:47;;;;;;;8.57;5.28;;;12.40;84.70;;;;;;5012313;28;20064;-81
2021/09/21 00:18:13;;;;;;;6.65;5.00;;;12.50;84.00;;;;;;4987841;28;20274;-81
2021/09/21 00:20:38;;;;;;;10.00;5.18;;;12.40;84.70;;;;;;5036592;28;20033;-80
2021/09/21 00:23:04;;;;;;;15.10;5.20;;;12.40;85.90;;;;;;5006601;28;20144;-80
2021/09/21 00:25:29;;;;;;;7.80;5.18;;;12.40;85.80;;;;;;4996262;28;20408;-80
2021/09/21 00:27:55;;;;;;;7.60;5.60;;;12.40;86.10;;;;;;5006567;28;20033;-81
2021/09/21 00:30:21;;;;;;;11.80;6.05;;;12.30;86.30;;;;;;4977283;28;20113;-80
2021/09/21 00:32:49;;;;;;;5.47;4.40;;;12.40;87.40;;;;;;5014001;28;20102;-81
2021/09/21 00:35:15;;;;;;;7.63;5.50;;;12.30;87.00;;;;;;4973702;28;20024;-80
2021/09/21 00:37:41;;;;;;;7.40;4.75;;;12.40;87.60;;;;;;5017712;28;20032;-80
2021/09/21 00:40:09;;;;;;;7.10;4.93;;;12.40;87.90;;;;;;4960725;28;20042;-81
2021/09/21 00:42:34;;;;;;;9.48;5.13;;;12.30;86.00;;;;;;4996534;28;20119;-81
2021/09/21 00:45:05;;;;;;;8.68;4.70;;;12.30;86.50;;;;;;4998498;28;20133;-80
2021/09/21 00:47:31;;;;;;;7.88;4.95;;;12.30;86.10;;;;;;4987735;28;20075;-80
2021/09/21 00:49:56;;;;;;;10.57;5.00;;;12.30;85.60;;;;;;5043032;28;20041;-80
2021/09/21 00:52:22;;;;;;;8.57;4.72;;;12.20;86.10;;;;;;4995684;28;20519;-80
2021/09/21 00:54:48;;;;;;;5.03;3.90;;;12.20;86.30;;;;;;5035546;28;20035;-80
2021/09/21 00:57:13;;;;;;;10.70;5.35;;;12.20;86.30;;;;;;5038710;28;20025;-80
2021/09/21 00:59:39;;;;;;;8.70;4.97;;;12.20;85.20;;;;;;5019150;28;20044;-81
2021/09/21 01:02:05;;;;;;;11.50;5.72;;;12.20;86.70;;;;;;5027140;28;20040;-80
2021/09/21 01:04:30;;;;;;;8.00;5.32;;;12.10;85.90;;;;;;5027428;28;20115;-80
2021/09/21 01:06:56;;;;;;;7.05;5.25;;;12.10;86.00;;;;;;5002492;28;20029;-80
2021/09/21 01:09:23;;;;;;;8.40;5.60;;;12.00;86.30;;;;;;5041083;28;20024;-80
2021/09/21 01:11:53;;;;;;;7.20;5.82;;;12.10;86.40;;;;;;5042632;28;20497;-80
2021/09/21 01:14:19;;;;;;;8.85;5.28;;;12.00;86.60;;;;;;5012357;28;20110;-80
2021/09/21 01:16:45;;;;;;;10.52;5.95;;;12.00;86.70;;;;;;5023391;28;20116;-80
2021/09/21 01:19:12;;;;;;;7.82;6.18;;;12.00;86.90;;;;;;5025203;28;20032;-80
2021/09/21 01:21:38;;;;;;;10.68;7.28;;;12.00;86.60;;;;;;5033803;28;20536;-80
2021/09/21 01:24:03;;;;;;;9.85;7.05;;;12.00;87.40;;;;;;5038941;28;20056;-80
2021/09/21 01:26:29;;;;;;;8.82;6.88;;;12.00;86.60;;;;;;5022643;28;20071;-81
2021/09/21 01:28:54;;;;;;;7.43;6.10;;;12.00;87.60;;;;;;5043967;28;20028;-80
2021/09/21 01:31:20;;;;;;;9.50;7.35;;;11.90;87.00;;;;;;5024627;28;20088;-81
2021/09/21 01:33:46;;;;;;;7.20;5.47;;;12.00;87.50;;;;;;5035190;28;20036;-80
2021/09/21 01:36:16;;;;;;;9.18;7.00;;;11.90;88.50;;;;;;5037471;28;20025;-80
2021/09/21 01:38:59;;;;;;;11.05;7.03;;;11.90;86.60;;;;;;5034931;28;20121;-80
2021/09/21 01:41:25;;;;;;;10.25;6.90;;;11.90;86.40;;;;;;5040070;28;20082;-80
2021/09/21 01:43:50;;;;;;;10.95;7.03;;;11.90;86.70;;;;;;5036632;28;20037;-80
2021/09/21 01:46:18;;;;;;;7.82;6.53;;;11.70;86.40;;;;;;5033464;28;20028;-80
2021/09/21 01:48:44;;;;;;;10.90;6.80;;;11.70;86.30;;;;;;5029969;28;20381;-80
2021/09/21 01:51:22;;;;;;;12.55;7.20;;;11.70;86.10;;;;;;5004329;28;20029;-80
2021/09/21 01:54:02;;;;;;;8.27;5.95;;;11.60;86.50;;;;;;5015514;28;20504;-80
2021/09/21 01:59:12;;;;;;;11.45;7.70;;;11.50;86.60;;;;;;5022663;28;20037;-80
2021/09/21 02:01:37;;;;;;;7.75;5.90;;;11.40;87.60;;;;;;5034847;28;20029;-80
2021/09/21 02:04:07;;;;;;;13.13;6.40;;;11.40;88.30;;;;;;5011036;28;20111;-80
2021/09/21 02:06:35;;;;;;;9.63;6.47;;;11.40;87.90;;;;;;5034129;28;20025;-80
2021/09/21 02:09:01;;;;;;;11.38;6.40;;;11.40;89.20;;;;;;5022409;28;20029;-80
2021/09/21 02:11:26;;;;;;;9.15;6.05;;;11.40;89.00;;;;;;5044025;28;20993;-80
2021/09/21 02:13:56;;;;;;;7.35;6.07;;;11.30;88.70;;;;;;5028091;28;20117;-80
2021/09/21 02:16:24;;;;;;;9.68;6.03;;;11.40;89.20;;;;;;5047385;28;20025;-81
2021/09/21 02:18:49;;;;;;;6.70;5.82;;;11.40;89.40;;;;;;5032269;28;20392;-80
2021/09/21 02:21:15;;;;;;;9.07;6.53;;;11.40;88.10;;;;;;5008505;28;20028;-80
2021/09/21 02:23:40;;;;;;;8.63;5.63;;;11.30;88.20;;;;;;5038309;28;20041;-80
2021/09/21 02:26:06;;;;;;;10.05;5.80;;;11.30;88.50;;;;;;5023266;28;20029;-80
2021/09/21 02:28:31;;;;;;;10.15;5.32;;;11.30;88.90;;;;;;5008480;28;20029;-80
2021/09/21 02:30:57;;;;;;;10.50;6.13;;;11.20;90.00;;;;;;5021077;28;20155;-80
2021/09/21 02:33:22;;;;;;;9.02;5.88;;;11.30;88.00;;;;;;5003411;28;20392;-80
2021/09/21 02:35:48;;;;;;;7.72;5.65;;;11.30;88.80;;;;;;5023603;28;20515;-80
2021/09/21 02:38:13;;;;;;;9.07;5.82;;;11.20;89.90;;;;;;5033468;28;20025;-81
2021/09/21 02:40:39;;;;;;;7.43;5.70;;;11.20;87.90;;;;;;5025126;28;20463;-80
2021/09/21 02:43:06;;;;;;;12.35;7.15;;;11.10;89.60;;;;;;5008131;28;20472;-80
2021/09/21 02:45:32;;;;;;;8.95;5.75;;;11.10;89.50;;;;;;5017882;28;20476;-80
2021/09/21 02:47:58;;;;;;;10.02;6.13;;;11.00;88.50;;;;;;5018859;28;20096;-80
2021/09/21 02:50:23;;;;;;;8.90;6.00;;;10.90;88.50;;;;;;5024518;28;20033;-79
2021/09/21 02:52:49;;;;;;;8.90;6.15;;;10.80;89.00;;;;;;5037292;28;20025;-80
2021/09/21 02:55:14;;;;;;;8.75;5.97;;;10.80;89.50;;;;;;5023063;28;20382;-80
2021/09/21 02:57:40;;;;;;;8.43;6.43;;;10.80;89.10;;;;;;5021423;28;20036;-80
2021/09/21 03:00:09;;;;;;;9.32;6.00;;;10.70;90.00;;;;;;5041030;28;20037;-80
2021/09/21 03:02:35;;;;;;;10.18;6.63;;;10.70;89.10;;;;;;5040775;28;20652;-79
2021/09/21 03:05:09;;;;;;;14.30;6.10;;;10.60;90.10;;;;;;5020215;28;20120;-80
2021/09/21 03:17:48;;;;;;;8.95;6.55;;;10.40;89.70;;;;;;5047184;28;20050;-80
2021/09/21 03:20:13;;;;;;;8.52;6.00;;;10.30;91.60;;;;;;5014398;28;20465;-82
2021/09/21 03:22:39;;;;;;;8.40;5.70;;;10.20;90.40;;;;;;5029096;28;20139;-81
2021/09/21 03:25:07;;;;;;;11.25;6.78;;;10.10;91.50;;;;;;5041294;28;20124;-81
2021/09/21 03:27:33;;;;;;;11.32;6.05;;;10.00;92.30;;;;;;5027724;28;20086;-81
2021/09/21 03:29:58;;;;;;;11.20;6.93;;;10.00;90.80;;;;;;5019563;28;20033;-81
2021/09/21 03:32:25;;;;;;;10.57;7.47;;;9.90;91.30;;;;;;5022631;28;20444;-81
2021/09/21 03:34:51;;;;;;;11.25;6.43;;;9.90;93.90;;;;;;5009842;28;20134;-85
2021/09/21 03:37:16;;;;;;;10.55;6.40;;;9.90;92.30;;;;;;5038468;28;20452;-82
2021/09/21 03:39:42;;;;;;;10.07;7.03;;;9.90;93.60;;;;;;5043049;28;20044;-82
2021/09/21 03:42:08;;;;;;;10.10;6.35;;;9.90;92.80;;;;;;5043423;28;20078;-82
2021/09/21 03:44:34;;;;;;;12.00;6.90;;;10.00;93.30;;;;;;5041690;28;20024;-82
2021/09/21 03:46:59;;;;;;;11.52;6.53;;;9.90;93.90;;;;;;5021461;28;20025;-81
2021/09/21 03:49:25;;;;;;;9.07;6.72;;;9.80;94.40;;;;;;5032390;28;20025;-81
2021/09/21 03:51:50;;;;;;;12.32;5.88;;;9.60;95.00;;;;;;4994718;28;20031;-81
2021/09/21 03:54:16;;;;;;;10.20;6.38;;;9.50;94.40;;;;;;5032310;28;20117;-82
2021/09/21 03:56:42;;;;;;;11.07;6.63;;;9.40;93.80;;;;;;5006271;28;20036;-81
2021/09/21 03:59:07;;;;;;;9.60;6.78;;;9.30;95.50;;;;;;5019996;28;20044;-81
2021/09/21 04:01:33;;;;;;;13.00;7.00;;;9.40;96.10;;;;;;5042579;28;20564;-81
2021/09/21 04:03:59;;;;;;;10.00;7.20;;;9.20;95.20;;;;;;5044400;28;20043;-81
2021/09/21 04:06:25;;;;;;;14.60;9.45;;;9.30;96.10;;;;;;5045223;28;20035;-81
2021/09/21 04:08:51;;;;;;;12.35;7.95;;;9.20;96.60;;;;;;5041983;28;20036;-81
2021/09/21 04:11:17;;;;;;;17.08;7.38;;;9.20;96.80;;;;;;5042569;28;20125;-81
2021/09/21 04:13:42;;;;;;;13.18;8.88;;;9.10;96.30;;;;;;5047760;28;20037;-81
2021/09/21 04:16:08;;;;;;;11.90;7.88;;;9.10;97.00;;;;;;5021424;28;20025;-82
2021/09/21 04:18:33;;;;;;;12.80;8.05;;;9.20;96.80;;;;;;5039800;28;20721;-82
2021/09/21 04:20:59;;;;;;;10.05;7.00;;;9.30;94.30;;;;;;5021436;28;20034;-82
2021/09/21 04:23:25;;;;;;;12.68;7.28;;;9.40;93.20;;;;;;5021243;28;20110;-81
2021/09/21 04:25:50;;;;;;;13.82;8.32;;;9.30;95.40;;;;;;5009878;28;20040;-80
2021/09/21 04:28:16;;;;;;;11.35;7.70;;;9.10;95.90;;;;;;5034300;28;20052;-80
2021/09/21 04:30:43;;;;;;;14.77;8.77;;;9.00;96.50;;;;;;5017777;28;20032;-80
2021/09/21 04:33:09;;;;;;;13.43;9.07;;;8.90;96.60;;;;;;5018905;28;20025;-80
2021/09/21 04:35:37;;;;;;;12.85;7.50;;;8.90;95.90;;;;;;5017904;28;20493;-80
2021/09/21 04:38:02;;;;;;;16.40;8.23;;;8.90;96.80;;;;;;5037856;28;20048;-79
2021/09/21 04:40:28;;;;;;;12.48;8.25;;;8.90;96.30;;;;;;5034844;28;20075;-79
2021/09/21 04:42:53;;;;;;;12.70;8.57;;;8.80;96.50;;;;;;5000467;28;20037;-80
2021/09/21 04:45:19;;;;;;;13.07;8.45;;;8.70;97.20;;;;;;5004854;28;20037;-80
2021/09/21 04:47:44;;;;;;;14.90;7.68;;;8.60;97.10;;;;;;5036561;28;20029;-79
2021/09/21 04:50:10;;;;;;;14.95;8.45;;;8.50;97.20;;;;;;5020649;28;20463;-79
2021/09/21 04:52:36;;;;;;;15.15;7.88;;;8.50;98.00;;;;;;5023850;28;20052;-79
2021/09/21 04:55:01;;;;;;;15.15;9.10;;;8.40;97.20;;;;;;5018794;28;20127;-78
2021/09/21 04:57:27;;;;;;;12.57;8.05;;;8.40;97.40;;;;;;5026624;28;20075;-79
2021/09/21 04:59:58;;;;;;;13.05;8.05;;;8.40;98.20;;;;;;5010871;28;20087;-79
2021/09/21 05:02:24;;;;;;;11.23;7.68;;;8.40;97.90;;;;;;5004551;28;20025;-79
2021/09/21 05:04:49;;;;;;;13.65;7.80;;;8.50;96.20;;;;;;5040630;28;20029;-80
2021/09/21 05:07:15;;;;;;;12.55;8.50;;;8.70;95.00;;;;;;5006462;28;20025;-80
2021/09/21 05:09:40;;;;;;;13.00;8.55;;;8.50;97.60;;;;;;5033467;28;20035;-80
2021/09/21 05:12:06;;;;;;;18.45;7.63;;;8.50;95.20;;;;;;5039131;28;20438;-80
2021/09/21 05:14:32;;;;;;;21.27;7.88;;;8.60;94.80;;;;;;4988389;28;20489;-80
2021/09/21 05:16:58;;;;;;;12.90;7.65;;;8.40;96.70;;;;;;5021003;28;20510;-80
2021/09/21 05:19:32;;;;;;;14.35;8.73;;;8.20;98.00;;;;;;5035506;28;20492;-80
2021/09/21 05:21:58;;;;;;;12.57;7.88;;;8.10;98.30;;;;;;4987550;28;20133;-80
2021/09/21 05:24:24;;;;;;;9.60;6.68;;;8.20;97.00;;;;;;4974624;28;20033;-80
2021/09/21 05:26:49;;;;;;;10.40;6.13;;;8.40;94.00;;;;;;4967836;28;20040;-80
2021/09/21 05:29:15;;;;;;;9.95;6.18;;;8.40;93.60;;;;;;4988257;28;20033;-79
2021/09/21 05:31:40;;;;;;;9.68;5.70;;;8.50;93.50;;;;;;4980210;28;20091;-79
2021/09/21 05:34:06;;;;;;;9.25;6.85;;;8.50;92.80;;;;;;5009877;28;20116;-80
2021/09/21 05:36:31;;;;;;;8.90;6.22;;;8.50;92.80;;;;;;4944456;28;20060;-79
2021/09/21 05:38:57;;;;;;;10.68;5.32;;;8.50;93.00;;;;;;5007362;28;20025;-80
2021/09/21 05:41:23;;;;;;;8.50;6.05;;;8.50;92.80;;;;;;4983637;28;20087;-80
2021/09/21 05:43:48;;;;;;;10.95;6.22;;;8.50;93.10;;;;;;5035540;28;20036;-79
2021/09/21 05:46:14;;;;;;;14.40;7.53;;;8.50;92.80;;;;;;5014716;28;20473;-80
2021/09/21 05:48:39;;;;;;;17.67;7.65;;;8.40;94.10;;;;;;4995186;28;20030;-80
2021/09/21 05:51:05;;;;;;;13.43;8.05;;;8.20;96.30;;;;;;4992618;28;20107;-79
2021/09/21 05:53:30;;;;;;;10.70;6.63;;;8.10;95.50;;;;;;5002124;28;20033;-79
2021/09/21 05:55:56;;;;;;;9.80;6.32;;;8.20;94.80;;;;;;4981566;28;20034;-79
2021/09/21 05:58:21;;;;;;;11.23;6.43;;;8.30;93.60;;;;;;4959088;28;20058;-80
2021/09/21 06:00:59;;;;;;;10.10;6.88;;;8.40;93.50;;;;;;5014321;28;20074;-80
2021/09/21 06:03:25;;;;;;;9.30;4.93;;;8.40;93.60;;;;;;4947390;28;20527;-80
2021/09/21 06:05:50;;;;;;;8.18;5.88;;;8.60;93.40;;;;;;4998750;28;20114;-80
2021/09/21 06:08:16;;;;;;;13.45;6.93;;;8.70;94.10;;;;;;5005838;28;20043;-80
2021/09/21 06:10:41;;;;;;;6.70;4.28;;;8.60;93.70;;;;;;4984230;28;20044;-81
2021/09/21 06:13:07;;;;;;;9.68;5.47;;;8.80;93.50;;;;;;5001146;28;20043;-80
2021/09/21 06:15:32;;;;;;;6.28;4.35;;;8.70;93.40;;;;;;4976240;28;20029;-80
2021/09/21 06:17:58;;;;;;;8.57;4.38;;;8.80;93.60;;;;;;5000798;28;20106;-81
2021/09/21 06:20:25;;;;;;;6.80;4.22;;;9.00;93.70;;;;;;5007884;28;20116;-80
2021/09/21 06:22:50;;;;;;;7.45;4.28;;;9.20;94.00;;;;;;5008966;28;20829;-79
2021/09/21 06:25:16;;;;;;;10.68;6.32;;;9.30;93.80;;;;;;4974216;28;20029;-79
2021/09/21 06:27:42;;;;;;;8.50;4.85;;;9.20;94.90;;;;;;4981111;28;20074;-81
2021/09/21 06:30:09;;;;;;;11.20;6.38;;;9.10;94.10;;;;;;4994926;28;20056;-80
2021/09/21 06:32:35;;;;;;;7.53;4.28;;;9.20;94.80;;;;;;5019404;28;20036;-81
2021/09/21 06:35:00;;;;;;;11.45;6.20;;;9.40;94.10;;;;;;4978031;28;20536;-81
2021/09/21 06:37:26;;;;;;;11.18;6.50;;;9.60;94.50;;;;;;5008059;28;20473;-80
2021/09/21 06:39:51;;;;;;;8.10;5.30;;;9.60;94.10;;;;;;4952756;28;20057;-81
2021/09/21 06:42:17;;;;;;;9.32;6.32;;;9.50;94.70;;;;;;4997309;28;20092;-81
2021/09/21 06:44:42;;;;;;;10.15;5.47;;;9.70;94.80;;;;;;5001394;28;20091;-81
2021/09/21 06:47:10;;;;;;;9.52;5.28;;;9.70;94.90;;;;;;5032152;28;20420;-80
2021/09/21 06:49:43;;;;;;;9.20;6.28;;;9.70;94.00;;;;;;5010426;28;20016;-80
2021/09/21 06:52:09;;;;;;;9.30;7.05;;;9.70;95.00;;;;;;5040566;28;20032;-81
2021/09/21 06:54:35;;;;;;;11.68;8.60;;;9.70;94.90;;;;;;5039766;28;20527;-81
2021/09/21 06:57:01;;;;;;;16.65;9.23;;;9.80;95.20;;;;;;5041934;28;20516;-80
2021/09/21 06:59:26;;;;;;;12.73;9.02;;;9.80;95.80;;;;;;4991057;28;20127;-81
2021/09/21 07:01:53;;;;;;;18.05;10.38;;;9.80;96.80;;;;;;4959479;28;20030;-81
2021/09/21 07:04:20;;;;;;;17.70;10.82;;;9.70;97.70;;;;;;4135306;28;25021041;-80
2021/09/21 07:06:45;;;;;;;16.52;10.88;;;9.50;98.40;;;;;;4954245;28;20025;-80
2021/09/21 07:09:11;;;;;;;14.85;9.30;;;9.50;98.30;;;;;;4977439;28;20248;-81
2021/09/21 07:11:37;;;;;;;14.05;10.63;;;9.90;96.20;;;;;;4980188;28;20393;-81
2021/09/21 07:14:02;;;;;;;10.63;6.10;;;10.00;94.90;;;;;;4955211;28;20111;-81
2021/09/21 07:16:35;;;;;;;15.30;10.30;;;10.20;94.60;;;;;;4995013;28;20052;-80
2021/09/21 07:19:00;;;;;;;13.68;9.00;;;10.30;96.70;;;;;;4968590;28;20048;-81
2021/09/21 07:21:27;;;;;;;19.13;10.98;;;10.40;95.00;;;;;;5017914;28;20031;-81
2021/09/21 07:23:53;;;;;;;13.82;10.85;;;10.40;97.40;;;;;;5002244;28;20538;-81
2021/09/21 07:26:18;;;;;;;18.08;10.13;;;10.20;97.70;;;;;;4978986;28;20064;-81
2021/09/21 07:28:44;;;;;;;17.65;9.70;;;10.20;97.90;;;;;;5001104;28;20160;-81
2021/09/21 07:31:09;;;;;;;17.88;11.63;;;10.20;97.50;;;;;;4992637;28;20598;-82
2021/09/21 07:33:35;;;;;;;14.75;9.85;;;10.20;98.40;;;;;;5020346;28;20036;-81
2021/09/21 07:36:00;;;;;;;17.77;11.07;;;10.50;96.80;;;;;;4957507;28;20164;-82
2021/09/21 07:38:26;;;;;;;13.10;7.95;;;10.60;97.10;;;;;;4990542;28;20041;-81
2021/09/21 07:40:51;;;;;;;17.00;8.90;;;10.80;95.90;;;;;;4967125;28;20041;-81
2021/09/21 07:43:17;;;;;;;17.17;8.90;;;10.90;96.90;;;;;;4990102;28;20048;-81
2021/09/21 07:45:43;;;;;;;16.00;10.75;;;10.90;97.50;;;;;;4956168;28;20041;-81
2021/09/21 07:48:09;;;;;;;13.88;9.63;;;11.10;98.20;;;;;;4952612;28;20033;-82
2021/09/21 07:50:35;;;;;;;9.70;6.85;;;11.30;96.60;;;;;;5038209;28;20052;-81
2021/09/21 07:53:01;;;;;;;15.75;8.82;;;11.60;95.50;;;;;;5041358;28;20055;-82
2021/09/21 07:55:26;;;;;;;14.90;9.98;;;11.80;95.30;;;;;;5022699;28;20109;-82
2021/09/21 07:57:52;;;;;;;15.05;9.45;;;11.80;96.50;;;;;;5034038;28;20036;-82
2021/09/21 08:00:19;;;;;;;14.38;8.77;;;11.90;96.70;;;;;;5009968;28;20416;-82
2021/09/21 08:02:45;;;;;;;11.38;7.65;;;12.10;95.10;;;;;;5040349;28;20029;-82
2021/09/21 08:05:11;;;;;;;15.38;8.15;;;11.90;95.50;;;;;;5039422;28;20032;-82
2021/09/21 08:07:36;;;;;;;12.07;5.80;;;12.20;95.60;;;;;;5038555;28;20025;-82
2021/09/21 08:10:03;;;;;;;13.70;6.65;;;12.60;93.80;;;;;;5016887;28;20120;-82
2021/09/21 08:12:29;;;;;;;11.90;6.85;;;13.20;92.90;;;;;;5005415;28;20068;-82
2021/09/21 08:14:56;;;;;;;5.82;4.45;;;13.10;93.40;;;;;;5002764;28;20086;-82
2021/09/21 08:17:22;;;;;;;6.68;4.18;;;13.00;93.20;;;;;;5020173;28;20506;-82
2021/09/21 08:19:49;;;;;;;7.82;5.75;;;13.30;92.50;;;;;;5037254;28;20496;-82
2021/09/21 08:22:15;;;;;;;11.30;5.63;;;13.40;92.30;;;;;;5016846;28;20025;-83
2021/09/21 08:24:40;;;;;;;8.43;5.53;;;13.10;92.90;;;;;;5016033;28;20083;-82
2021/09/21 08:27:06;;;;;;;10.65;6.25;;;13.20;92.70;;;;;;5004591;28;20461;-82
2021/09/21 08:29:31;;;;;;;12.52;6.30;;;13.00;92.90;;;;;;5039315;28;20036;-83
2021/09/21 08:31:57;;;;;;;12.75;7.35;;;12.90;93.90;;;;;;5016466;28;20029;-83
2021/09/21 08:34:23;;;;;;;13.35;8.00;;;13.20;93.30;;;;;;5005681;28;20036;-82
2021/09/21 08:36:51;;;;;;;12.80;7.10;;;12.80;94.20;;;;;;5025037;28;20020;-82
2021/09/21 08:39:19;;;;;;;12.85;6.88;;;13.30;94.20;;;;;;5019539;28;20033;-82
2021/09/21 08:41:45;;;;;;;9.63;6.20;;;13.30;93.10;;;;;;5040976;28;20037;-83
2021/09/21 08:44:11;;;;;;;10.95;6.57;;;13.60;93.30;;;;;;5019916;28;20029;-82
2021/09/21 08:46:36;;;;;;;12.25;6.00;;;13.80;93.00;;;;;;5040829;28;20020;-83
2021/09/21 08:49:02;;;;;;;10.18;6.80;;;13.70;93.80;;;;;;5022720;28;20033;-83
2021/09/21 08:51:28;;;;;;;10.73;6.72;;;13.60;92.80;;;;;;5036681;28;20037;-83
2021/09/21 08:53:54;;;;;;;9.95;5.75;;;14.00;93.20;;;;;;5009636;28;20056;-83
2021/09/21 08:56:20;;;;;;;10.73;6.95;;;14.20;93.10;;;;;;5010450;28;20029;-82
2021/09/21 08:58:59;;;;;;;7.20;5.85;;;14.50;92.40;;;;;;5042102;28;20495;-83
2021/09/21 09:01:25;;;;;;;8.35;5.07;;;14.90;92.40;;;;;;5034147;28;20316;-83
2021/09/21 09:03:56;;;;;;;9.73;5.97;;;15.00;92.10;;;;;;5007220;28;20044;-83
2021/09/21 09:06:23;;;;;;;9.38;6.45;;;15.10;92.30;;;;;;5027521;28;20037;-83
2021/09/21 09:08:48;;;;;;;9.45;5.68;;;15.30;92.80;;;;;;5021593;28;20036;-83
2021/09/21 09:11:21;;;;;;;14.85;7.40;;;15.20;92.20;;;;;;5023539;28;20029;-84
2021/09/21 09:13:57;;;;;;;11.32;6.85;;;15.50;92.10;;;;;;5025511;28;20048;-83
2021/09/21 09:16:24;;;;;;;13.10;7.28;;;15.40;93.00;;;;;;5042678;28;20043;-84
2021/09/21 09:19:06;;;;;;;9.93;6.18;;;15.50;93.10;;;;;;5039667;28;20040;-83
2021/09/21 09:21:33;;;;;;;12.02;6.80;;;15.60;92.50;;;;;;5023186;28;20078;-83
2021/09/21 09:23:59;;;;;;;11.02;6.05;;;15.90;92.00;;;;;;5010315;28;20036;-83
2021/09/21 09:26:26;;;;;;;10.75;5.95;;;16.20;91.60;;;;;;4987748;28;20057;-83
2021/09/21 09:28:54;;;;;;;8.55;5.10;;;16.50;91.40;;;;;;5040726;28;20028;-84
2021/09/21 09:31:30;;;;;;;10.35;5.45;;;16.80;91.80;;;;;;5004788;28;20495;-83
2021/09/21 09:34:14;;;;;;;;;;;16.20;90.90;;;;;;5008299;28;20459;-83
2021/09/21 09:36:58;;;;;;;7.18;3.97;;;16.60;90.80;;;;;;5018155;28;19912;-83
2021/09/21 09:39:29;;;;;;;7.93;3.80;;;17.00;90.60;;;;;;5019275;28;20039;-83
2021/09/21 09:41:56;;;;;;;7.90;4.60;;;17.40;89.70;;;;;;5007207;28;20025;-83
2021/09/21 09:44:24;;;;;;;6.00;3.45;;;18.20;87.70;;;;;;5004750;28;20021;-83
2021/09/21 09:46:49;;;;;;;6.72;3.72;;;17.70;89.70;;;;;;5037252;28;20039;-84
2021/09/21 09:49:23;;;;;;;7.80;4.47;;;17.80;88.10;;;;;;5058167;28;20021;-84
2021/09/21 09:51:50;;;;;;;6.80;3.70;;;17.60;90.70;;;;;;5038819;28;20056;-85
2021/09/21 09:54:15;;;;;;;9.05;4.88;;;17.40;91.00;;;;;;5044769;28;20479;-82
2021/09/21 09:56:42;;;;;;;7.43;4.65;;;17.40;89.10;;;;;;5025308;28;20242;-83
2021/09/21 09:59:08;;;;;;;5.97;3.83;;;17.20;91.50;;;;;;5022528;28;20021;-83
2021/09/21 10:01:34;;;;;;;9.82;3.75;;;17.70;91.20;;;;;;5038429;28;20441;-83
2021/09/21 10:04:01;;;;;;;9.57;3.13;;;17.60;91.70;;;;;;5032955;28;20045;-82
2021/09/21 10:06:27;;;;;;;4.10;2.75;;;18.00;90.90;;;;;;5007624;28;20082;-83
2021/09/21 10:08:53;;;;;;;4.90;2.92;;;17.90;91.20;;;;;;5012144;28;20125;-83
2021/09/21 10:11:18;;;;;;;4.35;3.30;;;17.80;90.80;;;;;;5009013;28;20079;-83
2021/09/21 10:13:44;;;;;;;4.13;2.80;;;17.80;91.80;;;;;;5025632;28;20025;-83
2021/09/21 10:16:10;;;;;;;3.72;2.65;;;18.00;83.30;;;;;;5004142;28;20025;-83
2021/09/21 10:18:44;;;;;;;6.05;2.75;;;18.10;89.40;;;;;;5007807;28;20041;-83
2021/09/21 10:21:10;;;;;;;3.75;3.05;;;18.10;90.80;;;;;;5022983;28;20119;-83
2021/09/21 10:23:37;;;;;;;5.93;3.20;;;18.20;88.90;;;;;;5024965;28;20047;-84
2021/09/21 10:26:15;;;;;;;5.35;3.22;;;18.50;90.40;;;;;;5028442;28;20035;-83
2021/09/21 10:28:41;;;;;;;7.43;2.95;;;19.70;83.80;;;;;;5034531;28;20025;-83
2021/09/21 10:31:14;;;;;;;5.82;3.53;;;20.80;78.90;;;;;;4998195;28;20493;-84
2021/09/21 10:33:40;;;;;;;5.15;3.40;;;19.90;82.60;;;;;;4997034;28;20112;-84
2021/09/21 10:36:19;;;;;;;5.10;3.08;;;19.40;85.60;;;;;;5038946;28;20109;-83
2021/09/21 10:38:58;;;;;;;5.28;3.20;;;19.40;86.60;;;;;;5039353;28;20040;-84
2021/09/21 10:41:26;;;;;;;6.07;2.90;;;19.50;86.90;;;;;;5042482;28;20496;-82
2021/09/21 10:44:07;;;;;;;4.18;2.60;;;19.40;86.30;;;;;;5041927;28;20207;-82
2021/09/21 10:46:43;;;;;;;4.30;2.40;;;19.40;84.00;;;;;;5035247;28;20041;-83
2021/09/21 10:49:09;;;;;;;;;;;19.50;83.00;;;;;;5034975;28;20055;-83
2021/09/21 10:51:34;;;;;;;7.18;3.08;;;19.30;83.30;;;;;;5036147;28;20016;-82
2021/09/21 10:54:01;;;;;;;5.43;3.10;;;19.30;82.50;;;;;;5020057;28;20564;-83
2021/09/21 10:56:27;;;;;;;4.57;3.15;;;19.30;80.90;;;;;;5021756;28;20042;-83
2021/09/21 10:58:53;;;;;;;6.70;2.65;;;19.30;80.10;;;;;;5009928;28;20381;-83
2021/09/21 11:01:19;;;;;;;3.58;3.00;;;19.30;83.10;;;;;;5014413;28;20487;-83
2021/09/21 11:03:44;;;;;;;4.75;2.47;;;19.60;83.50;;;;;;5015425;28;20119;-82
2021/09/21 11:06:12;;;;;;;3.50;3.00;;;19.50;83.30;;;;;;5018554;28;20043;-82
2021/09/21 11:08:38;;;;;;;2.50;2.30;;;19.60;83.70;;;;;;5035633;28;20029;-82
2021/09/21 11:11:04;;;;;;;3.00;2.13;;;20.00;82.30;;;;;;5021595;28;20132;-82
2021/09/21 11:13:37;;;;;;;2.45;2.08;;;20.30;82.80;;;;;;5002290;28;20127;-86
2021/09/21 11:16:07;;;;;;;4.88;2.40;;;21.00;79.10;;;;;;5024315;28;20035;-84
2021/09/21 11:18:35;;;;;;;5.80;3.65;;;22.20;74.80;;;;;;4997209;28;20531;-87
2021/09/21 11:21:05;;;;;;;19.98;12.13;;;22.80;75.70;;;;;;5034239;28;20037;-84
2021/09/21 11:24:20;;;;;;;4.47;2.97;;;21.20;78.30;;;;;;5008621;28;20435;-84
2021/09/21 11:26:54;;;;;;;2.97;2.67;;;20.70;78.30;;;;;;5051655;28;20029;-85
2021/09/21 11:29:20;;;;;;;5.00;2.50;;;20.60;80.30;;;;;;5032555;28;20025;-87
2021/09/21 11:35:21;;;;;;;5.30;4.30;;;21.00;80.00;;;;;;4982388;28;20037;-82
2021/09/21 11:41:12;;;;;;;4.30;2.95;;;21.50;78.90;;;;;;5008757;28;20143;-82
2021/09/21 11:43:50;;;;;;;3.42;2.85;;;21.30;76.60;;;;;;4980586;28;20583;-82
2021/09/21 11:46:58;;;;;;;3.70;2.53;;;21.50;78.40;;;;;;4973851;28;20082;-83
2021/09/21 11:49:39;;;;;;;4.47;2.72;;;21.70;78.40;;;;;;5038168;28;20483;-83
2021/09/21 11:55:16;;;;;;;2.90;2.20;;;22.00;77.90;;;;;;4979361;28;20061;-84
2021/09/21 11:57:42;;;;;;;2.90;2.50;;;22.10;76.30;;;;;;5022799;28;20056;-84
2021/09/21 12:00:19;;;;;;;3.70;2.55;;;22.50;76.70;;;;;;5002834;28;20526;-84
2021/09/21 12:02:44;;;;;;;3.47;2.55;;;22.30;78.20;;;;;;5041562;28;20032;-83
2021/09/21 12:05:18;;;;;;;3.80;3.00;;;22.30;77.40;;;;;;5008523;28;20033;-83
2021/09/21 12:07:44;;;;;;;4.35;2.72;;;22.20;76.40;;;;;;5036958;28;20048;-83
2021/09/21 12:10:10;;;;;;;4.38;2.25;;;22.30;77.00;;;;;;4992711;28;20460;-84
2021/09/21 12:12:35;;;;;;;6.57;2.60;;;22.40;76.40;;;;;;5019619;28;20033;-84
2021/09/21 12:15:01;;;;;;;3.67;2.35;;;22.50;75.40;;;;;;5023149;28;20387;-84
2021/09/21 12:17:27;;;;;;;5.28;2.70;;;22.50;72.30;;;;;;5006847;28;20427;-84
2021/09/21 12:20:01;;;;;;;3.22;2.67;;;22.30;70.50;;;;;;5002460;28;20392;-85
2021/09/21 12:22:27;;;;;;;5.25;2.92;;;22.40;72.30;;;;;;5026026;28;20128;-85
2021/09/21 12:24:53;;;;;;;4.85;3.45;;;22.50;72.80;;;;;;5005266;28;20103;-84
2021/09/21 12:27:24;;;;;;;5.63;2.72;;;22.60;70.10;;;;;;5005634;28;20029;-84
2021/09/21 12:29:50;;;;;;;6.35;3.33;;;22.50;72.80;;;;;;5010317;28;20116;-85
2021/09/21 12:32:15;;;;;;;4.70;2.95;;;22.60;73.50;;;;;;5021928;28;20115;-84
2021/09/21 12:34:43;;;;;;;8.52;3.00;;;22.60;71.40;;;;;;5027566;28;20418;-85
2021/09/21 12:37:08;;;;;;;5.10;3.28;;;22.90;72.90;;;;;;5035218;28;20023;-85
2021/09/21 12:39:34;;;;;;;6.72;2.90;;;22.90;70.20;;;;;;5011987;28;20012;-85
2021/09/21 12:42:01;;;;;;;3.22;2.28;;;23.20;70.00;;;;;;4970302;28;20454;-85
2021/09/21 14:35:31;;;;;;;3.75;2.65;;;23.40;63.90;;;;;;5037260;28;20507;-87
2021/09/21 14:37:56;;;;;;;7.38;2.58;;;23.30;62.70;;;;;;5019197;28;20029;-88
2021/09/21 14:40:23;;;;;;;3.10;2.33;;;23.20;61.40;;;;;;5002611;28;20504;-88
2021/09/21 14:42:48;;;;;;;3.83;2.20;;;23.20;63.10;;;;;;5007319;28;20044;-87
2021/09/21 14:45:15;;;;;;;3.67;2.63;;;23.20;62.90;;;;;;5022317;28;20032;-88
2021/09/21 14:47:40;;;;;;;3.20;2.58;;;23.10;62.80;;;;;;5040058;28;20025;-86
2021/09/21 14:50:07;;;;;;;2.90;1.77;;;23.10;63.80;;;;;;5025488;28;20040;-88
2021/09/21 14:52:33;;;;;;;3.75;2.08;;;23.20;63.90;;;;;;5000310;28;20080;-87
2021/09/21 14:54:58;;;;;;;4.90;2.65;;;23.20;63.70;;;;;;5002761;28;20625;-87
2021/09/21 14:57:24;;;;;;;4.93;2.95;;;23.10;64.10;;;;;;5021684;28;21804;-87
2021/09/21 14:59:50;;;;;;;3.75;2.28;;;22.90;61.90;;;;;;5006759;28;20025;-87